Latest Flight | Flight Log | Data Trends | Login | Join FlightData.com!
Date Range From To
Export:
Flight Log - N220SX - Click on row to view flight. Click on header to sort.
Date Origin Dest Depart Arrive Hobbs Flight Time Flight Distance Fuel Fuel/hr Fuel/nm Altitude Gnd Speed
Fri, Oct 8, 2010 LKVO LKVO 15:26 16:16 0.81 hrs 0.49 hrs 63.96 nm 8.65 gal 10.74 gal/hr 0.14 gal/nm 2187 msl 123 kts
Fri, Oct 8, 2010     15:09 15:09 0.01 hrs 0.00 hrs 0.00 nm 0.00 gal 0.00 gal/hr 0.00 gal/nm 0 msl 0 kts
Thu, Oct 7, 2010 LGKR LKVO 13:49 18:51 4.89 hrs 4.68 hrs 731.35 nm 64.64 gal 13.21 gal/hr 0.09 gal/nm 13063 msl 152 kts
Thu, Oct 7, 2010 LCPH LGKR 07:50 12:57 4.99 hrs 4.65 hrs 704.59 nm 67.87 gal 13.61 gal/hr 0.10 gal/nm 14008 msl 148 kts
Thu, Oct 7, 2010 LCPH LCPH 07:04 07:08 0.05 hrs 0.00 hrs 0.00 nm 0.00 gal 0.00 gal/hr 0.00 gal/nm 0 msl 0 kts
Wed, Oct 6, 2010     22:01 22:01 0.01 hrs 0.00 hrs 0.00 nm 0.00 gal 0.00 gal/hr 0.00 gal/nm 0 msl 0 kts
Wed, Oct 6, 2010 LCPH LCPH 21:57 21:59 0.03 hrs 0.00 hrs 0.00 nm 0.00 gal 0.00 gal/hr 0.00 gal/nm 0 msl 0 kts
Wed, Oct 6, 2010 LCPH LCPH 21:55 21:56 0.02 hrs 0.00 hrs 0.00 nm 0.00 gal 0.00 gal/hr 0.00 gal/nm 0 msl 0 kts
Wed, Oct 6, 2010 LCPH LCPH 21:52 21:54 0.02 hrs 0.00 hrs 0.00 nm 0.00 gal 0.00 gal/hr 0.00 gal/nm 0 msl 0 kts
Thu, Aug 12, 2010 LRBS LCPH 16:45 21:27 4.59 hrs 4.32 hrs 713.30 nm 65.22 gal 14.20 gal/hr 0.09 gal/nm 15010 msl 162 kts
Thu, Aug 12, 2010 EPGD LRBS 10:13 15:08 4.83 hrs 4.54 hrs 711.09 nm 65.83 gal 13.62 gal/hr 0.09 gal/nm 11007 msl 154 kts
Thu, Aug 12, 2010 EPGD EPGD 09:40 09:43 0.04 hrs 0.00 hrs 0.00 nm 0.00 gal 0.00 gal/hr 0.00 gal/nm 0 msl 0 kts
Thu, Aug 12, 2010 UMKK EPGD 08:18 09:22 1.01 hrs 0.62 hrs 85.84 nm 11.07 gal 10.94 gal/hr 0.13 gal/nm 10009 msl 134 kts
Wed, Aug 4, 2010 LKVO UMKK 12:17 15:10 2.78 hrs 2.48 hrs 440.56 nm 39.63 gal 14.24 gal/hr 0.09 gal/nm 15009 msl 171 kts
Wed, Aug 4, 2010     12:15 12:16 0.01 hrs 0.00 hrs 0.00 nm 0.00 gal 0.00 gal/hr 0.00 gal/nm 0 msl 0 kts
Fri, Jul 30, 2010 LFMD LKVO 10:35 15:17 4.57 hrs 4.08 hrs 721.45 nm 62.92 gal 13.76 gal/hr 0.09 gal/nm 16008 msl 172 kts
Fri, Jul 30, 2010 LFMD LFMD 09:58 10:03 0.09 hrs 0.00 hrs 0.00 nm 0.00 gal 0.00 gal/hr 0.00 gal/nm 0 msl 0 kts
Thu, Jul 29, 2010 LFMD LFMD 13:13 13:17 0.07 hrs 0.00 hrs 0.00 nm 0.25 gal 3.52 gal/hr 0.00 gal/nm 0 msl 0 kts
Thu, Jul 29, 2010 LKVO LFMD 08:20 12:56 4.41 hrs 4.22 hrs 640.66 nm 62.83 gal 14.26 gal/hr 0.10 gal/nm 15016 msl 146 kts
Thu, Jul 29, 2010 LKVO LKVO 07:44 07:46 0.03 hrs 0.00 hrs 0.00 nm 0.00 gal 0.00 gal/hr 0.00 gal/nm 0 msl 0 kts
Thu, Jul 29, 2010     07:25 07:25 0.01 hrs 0.00 hrs 0.00 nm 0.00 gal 0.00 gal/hr 0.00 gal/nm 0 msl 0 kts
Wed, Jul 28, 2010 LKVO LKVO 11:19 11:22 0.04 hrs 0.00 hrs 0.00 nm 0.06 gal 1.64 gal/hr 0.00 gal/nm 0 msl 0 kts
Wed, Jul 28, 2010     11:18 11:19 0.01 hrs 0.00 hrs 0.00 nm 0.01 gal 1.76 gal/hr 0.00 gal/nm 0 msl 0 kts
Wed, Jul 28, 2010 LKVO LKVO 11:16 11:17 0.03 hrs 0.00 hrs 0.00 nm 0.06 gal 1.89 gal/hr 0.00 gal/nm 0 msl 0 kts
Wed, Jul 28, 2010 LKVO LKVO 11:03 11:15 0.19 hrs 0.00 hrs 0.00 nm 0.44 gal 2.31 gal/hr 0.00 gal/nm 0 msl 0 kts
Wed, Jul 28, 2010     11:01 11:02 0.02 hrs 0.00 hrs 0.00 nm 0.03 gal 1.99 gal/hr 0.00 gal/nm 0 msl 0 kts
Wed, Jul 28, 2010     10:59 11:00 0.02 hrs 0.00 hrs 0.00 nm 0.04 gal 2.46 gal/hr 0.00 gal/nm 0 msl 0 kts
Wed, Jul 28, 2010 LKVO LKVO 10:57 10:59 0.02 hrs 0.00 hrs 0.00 nm 0.05 gal 2.51 gal/hr 0.00 gal/nm 0 msl 0 kts
Wed, Jul 28, 2010     10:56 10:57 0.01 hrs 0.00 hrs 0.00 nm 0.00 gal 0.00 gal/hr 0.00 gal/nm 0 msl 0 kts
Wed, Jul 28, 2010 LKVO LKVO 10:50 10:55 0.08 hrs 0.00 hrs 0.00 nm 0.00 gal 0.00 gal/hr 0.00 gal/nm 0 msl 0 kts
Wed, Jul 28, 2010 LKVO LKVO 10:47 10:49 0.04 hrs 0.00 hrs 0.00 nm 0.00 gal 0.00 gal/hr 0.00 gal/nm 0 msl 0 kts
Wed, Jul 28, 2010 LKVO LKVO 10:44 10:46 0.04 hrs 0.00 hrs 0.00 nm 0.00 gal 0.00 gal/hr 0.00 gal/nm 0 msl 0 kts
Wed, May 26, 2010 LKVO LKVO 16:27 17:57 1.47 hrs 1.25 hrs 168.00 nm 20.05 gal 13.69 gal/hr 0.12 gal/nm 3007 msl 131 kts
Wed, May 26, 2010 LKVO LKVO 16:24 16:26 0.04 hrs 0.00 hrs 0.00 nm 0.00 gal 0.00 gal/hr 0.00 gal/nm 0 msl 0 kts
Tue, May 25, 2010 LKVO LKVO 12:33 12:58 0.41 hrs 0.21 hrs 21.31 nm 3.20 gal 7.77 gal/hr 0.15 gal/nm 2047 msl 98 kts
Tue, May 25, 2010 LKVO LKVO 11:58 12:28 0.48 hrs 0.27 hrs 29.39 nm 4.16 gal 8.74 gal/hr 0.14 gal/nm 2065 msl 101 kts
Wed, May 19, 2010 LKVO LKVO 11:12 12:11 0.95 hrs 0.69 hrs 89.39 nm 11.09 gal 11.72 gal/hr 0.12 gal/nm 3520 msl 127 kts
Sun, May 16, 2010 UMKK LKVO 14:37 17:30 2.82 hrs 2.66 hrs 422.17 nm 37.48 gal 13.29 gal/hr 0.09 gal/nm 12007 msl 156 kts
Sun, May 16, 2010 UMKK UMKK 14:17 14:27 0.16 hrs 0.00 hrs 0.00 nm 0.00 gal 0.00 gal/hr 0.00 gal/nm 0 msl 0 kts
Sun, May 16, 2010 UMKK UMKK 13:49 13:52 0.05 hrs 0.00 hrs 0.00 nm 0.00 gal 0.00 gal/hr 0.00 gal/nm 0 msl 0 kts
Sun, May 16, 2010     13:38 13:39 0.02 hrs 0.00 hrs 0.00 nm 0.00 gal 0.00 gal/hr 0.00 gal/nm 0 msl 0 kts
Sun, May 16, 2010     13:36 13:37 0.01 hrs 0.00 hrs 0.00 nm 0.00 gal 0.00 gal/hr 0.00 gal/nm 0 msl 0 kts
Sun, May 16, 2010 UMKK UMKK 13:35 13:36 0.01 hrs 0.00 hrs 0.00 nm 0.00 gal 0.00 gal/hr 0.00 gal/nm 0 msl 0 kts
Sun, May 16, 2010 EPGD UMKK 12:15 13:13 0.92 hrs 0.63 hrs 98.53 nm 12.15 gal 13.25 gal/hr 0.12 gal/nm 10006 msl 144 kts
Sun, May 16, 2010     11:30 11:31 0.01 hrs 0.00 hrs 0.00 nm 0.00 gal 0.00 gal/hr 0.00 gal/nm 0 msl 0 kts
Sun, May 16, 2010 LKVO EPGD 09:05 11:29 2.35 hrs 2.13 hrs 338.64 nm 30.95 gal 13.16 gal/hr 0.09 gal/nm 10008 msl 157 kts
Sat, May 15, 2010 LKVO LKVO 15:18 15:27 0.14 hrs 0.00 hrs 0.00 nm 0.00 gal 0.00 gal/hr 0.00 gal/nm 0 msl 0 kts
Sat, May 15, 2010 LKVO LKVO 15:14 15:17 0.06 hrs 0.00 hrs 0.00 nm 0.00 gal 0.00 gal/hr 0.00 gal/nm 0 msl 0 kts
Sat, May 15, 2010 LKVO LKVO 15:11 15:13 0.03 hrs 0.00 hrs 0.00 nm 0.00 gal 0.00 gal/hr 0.00 gal/nm 0 msl 0 kts
Sat, May 15, 2010     15:09 15:10 0.02 hrs 0.00 hrs 0.00 nm 0.00 gal 0.00 gal/hr 0.00 gal/nm 0 msl 0 kts
Mon, May 10, 2010 UMKK LKVO 10:05 13:12 3.07 hrs 2.86 hrs 430.65 nm 38.85 gal 12.66 gal/hr 0.09 gal/nm 14006 msl 148 kts
Mon, May 10, 2010 UMKK UMKK 09:43 09:54 0.17 hrs 0.00 hrs 0.00 nm 0.00 gal 0.00 gal/hr 0.00 gal/nm 0 msl 0 kts
Thu, May 6, 2010 EPGD UMKK 15:14 16:21 1.05 hrs 0.76 hrs 110.78 nm 13.48 gal 12.79 gal/hr 0.12 gal/nm 10006 msl 138 kts
Thu, May 6, 2010 LKVO EPGD 11:37 14:11 2.51 hrs 2.26 hrs 341.35 nm 35.07 gal 13.95 gal/hr 0.10 gal/nm 7011 msl 148 kts
Thu, May 6, 2010 LKVO LKVO 11:14 11:18 0.06 hrs 0.00 hrs 0.00 nm 0.00 gal 0.00 gal/hr 0.00 gal/nm 0 msl 0 kts
Fri, Apr 23, 2010 LKVO LKVO 18:41 19:09 0.44 hrs 0.24 hrs 26.30 nm 3.86 gal 8.70 gal/hr 0.15 gal/nm 2050 msl 106 kts
Fri, Apr 23, 2010     18:39 18:39 0.01 hrs 0.00 hrs 0.00 nm 0.00 gal 0.00 gal/hr 0.00 gal/nm 0 msl 0 kts
Thu, Apr 22, 2010 LKVO LKVO 15:47 16:17 0.5 hrs 0.16 hrs 18.51 nm 3.07 gal 6.20 gal/hr 0.17 gal/nm 2211 msl 112 kts
Thu, Apr 22, 2010 LKVO LKVO 14:28 15:10 0.67 hrs 0.18 hrs 19.89 nm 3.80 gal 5.69 gal/hr 0.19 gal/nm 2365 msl 102 kts
Thu, Apr 22, 2010 LKVO LKVO 14:06 14:06 0.01 hrs 0.00 hrs 0.00 nm 0.00 gal 0.00 gal/hr 0.00 gal/nm 0 msl 0 kts
Tue, Apr 20, 2010 LKVO LKVO 15:14 16:11 0.9 hrs 0.19 hrs 21.01 nm 4.40 gal 4.91 gal/hr 0.21 gal/nm 2027 msl 103 kts
Tue, Apr 20, 2010 LKVO LKVO 14:52 14:53 0.01 hrs 0.00 hrs 0.00 nm 0.00 gal 0.00 gal/hr 0.00 gal/nm 0 msl 0 kts
Mon, Apr 19, 2010 LKVO LKVO 14:23 15:58 1.51 hrs 1.14 hrs 161.28 nm 17.13 gal 11.36 gal/hr 0.11 gal/nm 3244 msl 135 kts
Mon, Apr 19, 2010 LKVO LKVO 13:59 14:00 0.02 hrs 0.00 hrs 0.00 nm 0.00 gal 0.00 gal/hr 0.00 gal/nm 0 msl 0 kts
Thu, Apr 15, 2010 EPGD LKVO 08:58 12:24 2.36 hrs 2.09 hrs 355.71 nm 39.92 gal 16.94 gal/hr 0.11 gal/nm 11104 msl 165 kts
Thu, Apr 15, 2010 EPGD EPGD 08:47 08:48 0.02 hrs 0.00 hrs 0.00 nm 0.00 gal 0.00 gal/hr 0.00 gal/nm 0 msl 0 kts
Thu, Apr 15, 2010 EPGD EPGD 08:29 08:33 0.06 hrs 0.00 hrs 0.00 nm 0.00 gal 0.00 gal/hr 0.00 gal/nm 0 msl 0 kts
Wed, Apr 14, 2010 LKVO EPGD 16:00 19:06 3 hrs 2.80 hrs 418.28 nm 43.51 gal 14.50 gal/hr 0.10 gal/nm 10007 msl 145 kts
Wed, Apr 14, 2010 LKVO LKVO 15:54 15:57 0.04 hrs 0.00 hrs 0.00 nm 0.00 gal 0.00 gal/hr 0.00 gal/nm 0 msl 0 kts
Tue, Apr 13, 2010 LKVO LKVO 12:39 14:09 1.45 hrs 1.03 hrs 147.46 nm 16.47 gal 11.37 gal/hr 0.11 gal/nm 2663 msl 137 kts
Sat, Apr 10, 2010 EDDB LKVO 15:01 16:17 1.22 hrs 0.89 hrs 150.37 nm 15.00 gal 12.35 gal/hr 0.10 gal/nm 11930 msl 160 kts
Sat, Apr 10, 2010 UMKK EDDB 12:07 14:10 2.01 hrs 1.76 hrs 301.47 nm 26.84 gal 13.38 gal/hr 0.09 gal/nm 9998 msl 168 kts
Wed, Apr 7, 2010 LKVO UMKK 12:49 15:40 2.79 hrs 2.62 hrs 407.02 nm 36.04 gal 12.92 gal/hr 0.09 gal/nm 10218 msl 152 kts
Wed, Apr 7, 2010 LKVO LKVO 11:54 12:00 0.1 hrs 0.00 hrs 0.00 nm 0.00 gal 0.00 gal/hr 0.00 gal/nm 0 msl 0 kts
Tue, Apr 6, 2010 LKHK LKVO 11:57 12:35 0.59 hrs 0.39 hrs 63.61 nm 9.64 gal 16.24 gal/hr 0.15 gal/nm 2086 msl 148 kts
Tue, Apr 6, 2010 LKVO LKHK 07:15 07:48 0.54 hrs 0.43 hrs 66.23 nm 9.19 gal 17.07 gal/hr 0.14 gal/nm 2157 msl 150 kts
Sat, Apr 3, 2010 LKVO LKVO 11:35 11:38 0.05 hrs 0.00 hrs 0.00 nm 0.00 gal 0.00 gal/hr 0.00 gal/nm 0 msl 0 kts
Tue, Mar 30, 2010 LKVO LKVO 10:40 12:26 1.72 hrs 1.47 hrs 182.91 nm 19.27 gal 11.21 gal/hr 0.11 gal/nm 2673 msl 120 kts
Tue, Mar 30, 2010 LKVO LKVO 10:28 10:38 0.17 hrs 0.00 hrs 0.00 nm 0.48 gal 2.78 gal/hr 0.00 gal/nm 0 msl 0 kts
Mon, Mar 29, 2010 LKVO LKVO 09:22 10:39 1.23 hrs 0.88 hrs 92.68 nm 12.07 gal 9.84 gal/hr 0.13 gal/nm 2832 msl 101 kts
Thu, Mar 25, 2010 LDZD LKVO 16:22 19:05 2.62 hrs 2.36 hrs 401.28 nm 35.90 gal 13.72 gal/hr 0.09 gal/nm 10186 msl 164 kts
Thu, Mar 25, 2010 LGKR LDZD 12:23 15:53 2.43 hrs 2.19 hrs 358.45 nm 47.95 gal 19.73 gal/hr 0.13 gal/nm 10286 msl 158 kts
Thu, Mar 25, 2010 LGMG LGKR 09:30 11:17 1.69 hrs 1.27 hrs 213.78 nm 23.12 gal 13.72 gal/hr 0.11 gal/nm 6714 msl 159 kts
Thu, Mar 25, 2010     09:05 09:06 0.02 hrs 0.00 hrs 0.00 nm 0.08 gal 3.67 gal/hr 0.00 gal/nm 0 msl 0 kts
Thu, Mar 25, 2010     09:00 09:01 0.01 hrs 0.00 hrs 0.00 nm 0.00 gal 0.34 gal/hr 0.00 gal/nm 0 msl 0 kts
Thu, Mar 25, 2010     08:58 08:58 0.01 hrs 0.00 hrs 0.00 nm 0.00 gal 0.27 gal/hr 0.00 gal/nm 0 msl 0 kts
Thu, Mar 25, 2010 LGMG LGMG 08:34 08:37 0.05 hrs 0.00 hrs 0.00 nm 0.00 gal 0.00 gal/hr 0.00 gal/nm 0 msl 0 kts
Thu, Mar 25, 2010 LGMG LGMG 08:28 08:33 0.07 hrs 0.00 hrs 0.00 nm 0.00 gal 0.00 gal/hr 0.00 gal/nm 0 msl 0 kts
Thu, Mar 11, 2010 LGMG LGMG 14:45 15:01 0.28 hrs 0.00 hrs 0.00 nm 0.57 gal 2.08 gal/hr 0.00 gal/nm 0 msl 0 kts
Tue, Mar 9, 2010 LGMG LGMG 11:15 11:20 0.08 hrs 0.00 hrs 0.00 nm 0.00 gal 0.00 gal/hr 0.00 gal/nm 0 msl 0 kts
Fri, Mar 5, 2010 LGMG LGMG 09:53 10:18 0.42 hrs 0.00 hrs 0.00 nm 1.55 gal 3.69 gal/hr 0.00 gal/nm 0 msl 0 kts
Fri, Mar 5, 2010 LGMG LGMG 08:38 08:55 0.28 hrs 0.00 hrs 0.00 nm 0.00 gal 0.00 gal/hr 0.00 gal/nm 0 msl 0 kts
Sat, Feb 27, 2010 LGRP LGMG 11:16 13:42 2.36 hrs 1.94 hrs 257.88 nm 29.86 gal 12.64 gal/hr 0.12 gal/nm 9773 msl 130 kts
Sat, Feb 27, 2010 LCPH LGRP 08:08 10:13 2 hrs 1.71 hrs 252.02 nm 25.74 gal 12.90 gal/hr 0.10 gal/nm 8015 msl 141 kts
Sat, Feb 27, 2010 LCPH LCPH 07:59 08:01 0.04 hrs 0.00 hrs 0.00 nm 0.00 gal 0.00 gal/hr 0.00 gal/nm 0 msl 0 kts
Fri, Feb 26, 2010 LCPH LCPH 13:22 13:37 0.25 hrs 0.00 hrs 0.00 nm 0.00 gal 0.00 gal/hr 0.00 gal/nm 0 msl 0 kts
Fri, Feb 26, 2010 LCPH LCPH 13:18 13:21 0.05 hrs 0.00 hrs 0.00 nm 0.00 gal 0.00 gal/hr 0.00 gal/nm 0 msl 0 kts
Fri, Feb 12, 2010 LCPH LCPH 11:47 13:08 1.27 hrs 0.84 hrs 112.15 nm 12.08 gal 9.52 gal/hr 0.11 gal/nm 3530 msl 125 kts
Wed, Feb 10, 2010 LCPH LCPH 14:03 15:11 1.08 hrs 0.46 hrs 63.88 nm 8.19 gal 7.58 gal/hr 0.13 gal/nm 3076 msl 130 kts
Tue, Feb 9, 2010 LCPH LCPH 13:13 14:51 1.61 hrs 1.22 hrs 120.99 nm 16.87 gal 10.50 gal/hr 0.14 gal/nm 1179 msl 98 kts
Tue, Feb 2, 2010 LCPH LCPH 13:47 14:08 0.34 hrs 0.00 hrs 0.00 nm 0.00 gal 0.00 gal/hr 0.00 gal/nm 0 msl 0 kts
Mon, Feb 1, 2010 LCPH LCPH 13:50 14:57 1.08 hrs 0.55 hrs 75.52 nm 9.23 gal 8.56 gal/hr 0.12 gal/nm 3261 msl 132 kts
Tue, Jan 26, 2010 LCPH LCPH 11:44 11:57 0.21 hrs 0.00 hrs 0.00 nm 0.57 gal 2.67 gal/hr 0.00 gal/nm 0 msl 0 kts
Wed, Nov 25, 2009 LCPH LCPH 13:28 13:59 0.5 hrs 0.28 hrs 36.10 nm 4.20 gal 8.43 gal/hr 0.12 gal/nm 1389 msl 118 kts
Tue, Nov 24, 2009 LCPH LCPH 14:57 15:32 0.57 hrs 0.27 hrs 33.75 nm 4.69 gal 8.23 gal/hr 0.14 gal/nm 2603 msl 123 kts
Tue, Nov 24, 2009 LCPH LCPH 14:53 14:55 0.03 hrs 0.00 hrs 0.00 nm 0.01 gal 0.31 gal/hr 0.00 gal/nm 0 msl 0 kts
Tue, Nov 24, 2009 LGRP LCPH 12:36 14:24 1.75 hrs 1.50 hrs 241.83 nm 25.81 gal 14.76 gal/hr 0.11 gal/nm 5609 msl 157 kts
Tue, Nov 24, 2009 LGMG LGRP 09:43 11:47 2.02 hrs 1.66 hrs 262.97 nm 27.70 gal 13.73 gal/hr 0.11 gal/nm 5576 msl 154 kts
Mon, Nov 23, 2009 LGMG LGMG 12:15 13:25 1.12 hrs 0.88 hrs 118.11 nm 14.73 gal 13.11 gal/hr 0.12 gal/nm 2383 msl 129 kts
Mon, Nov 23, 2009 LGMG LGMG 11:31 11:44 0.21 hrs 0.00 hrs 0.00 nm 0.44 gal 2.10 gal/hr 0.00 gal/nm 0 msl 0 kts
Sun, Nov 22, 2009 LGMG LGMG 10:07 11:55 1.8 hrs 0.00 hrs 0.00 nm 0.00 gal 0.00 gal/hr 0.00 gal/nm 0 msl 0 kts
Sun, Oct 18, 2009 LGMG LGMG 14:53 14:57 0.06 hrs 0.00 hrs 0.00 nm 0.00 gal 0.00 gal/hr 0.00 gal/nm 0 msl 0 kts
Sun, Oct 18, 2009 LGSK LGMG 14:05 14:45 0.64 hrs 0.53 hrs 75.47 nm 9.94 gal 15.49 gal/hr 0.13 gal/nm 4631 msl 137 kts
Sun, Oct 18, 2009 LGMG LGSK 12:03 12:47 0.69 hrs 0.55 hrs 85.21 nm 11.18 gal 16.16 gal/hr 0.13 gal/nm 5642 msl 148 kts
Sun, Oct 18, 2009 LGMG LGMG 11:26 11:41 0.26 hrs 0.00 hrs 0.00 nm 0.60 gal 2.29 gal/hr 0.00 gal/nm 0 msl 0 kts
Sun, Oct 18, 2009 LGMG LGMG 11:18 11:20 0.03 hrs 0.00 hrs 0.00 nm 0.00 gal 0.00 gal/hr 0.00 gal/nm 0 msl 0 kts
Sun, Oct 4, 2009 LGSK LGMG 13:58 14:45 0.76 hrs 0.54 hrs 79.69 nm 11.06 gal 14.59 gal/hr 0.14 gal/nm 6712 msl 142 kts
Sun, Oct 4, 2009 LGMG LGSK 10:54 11:48 0.88 hrs 0.62 hrs 84.23 nm 11.77 gal 13.45 gal/hr 0.14 gal/nm 7743 msl 133 kts
Sun, Oct 4, 2009 LGMG LGMG 10:30 10:34 0.06 hrs 0.00 hrs 0.00 nm 0.00 gal 0.00 gal/hr 0.00 gal/nm 0 msl 0 kts
Mon, Sep 21, 2009 LGTG LGMG 09:06 09:34 0.45 hrs 0.22 hrs 32.46 nm 5.19 gal 11.50 gal/hr 0.16 gal/nm 5263 msl 138 kts
Sat, Sep 19, 2009 LGTG LGTG 10:08 10:10 0.03 hrs 0.00 hrs 0.00 nm 0.00 gal 0.00 gal/hr 0.00 gal/nm 0 msl 0 kts
Thu, Sep 17, 2009 LGTG LGTG 16:07 16:14 0.13 hrs 0.00 hrs 0.00 nm 0.40 gal 3.22 gal/hr 0.00 gal/nm 0 msl 0 kts
Thu, Sep 17, 2009 LGMG LGTG 14:30 15:00 0.48 hrs 0.22 hrs 31.90 nm 4.68 gal 9.82 gal/hr 0.15 gal/nm 4140 msl 137 kts
Sun, Aug 30, 2009 LGHI LGMG 13:41 14:52 1.14 hrs 0.92 hrs 150.65 nm 21.99 gal 19.26 gal/hr 0.15 gal/nm 4968 msl 158 kts
Sat, Aug 29, 2009 LGMG LGHI 13:31 14:46 1.21 hrs 0.85 hrs 136.46 nm 17.80 gal 14.73 gal/hr 0.13 gal/nm 3690 msl 157 kts
Thu, Aug 27, 2009 LGKR LGMG 14:29 15:58 1.45 hrs 1.29 hrs 192.41 nm 16.28 gal 11.20 gal/hr 0.08 gal/nm 5765 msl 148 kts
Thu, Aug 27, 2009 EDAZ LGKR 08:27 13:50 5.35 hrs 5.18 hrs 846.99 nm 62.62 gal 11.72 gal/hr 0.07 gal/nm 14810 msl 162 kts
Thu, Aug 27, 2009     07:59 08:00 0.02 hrs 0.00 hrs 0.00 nm 0.05 gal 2.43 gal/hr 0.00 gal/nm 0 msl 0 kts
Thu, Aug 27, 2009 EDBF EDAZ 06:32 07:02 0.48 hrs 0.33 hrs 39.79 nm 4.08 gal 8.53 gal/hr 0.10 gal/nm 1482 msl 117 kts
Wed, Aug 26, 2009 EDBF EDBF 16:18 16:20 0.04 hrs 0.00 hrs 0.00 nm 0.00 gal 0.00 gal/hr 0.00 gal/nm 0 msl 0 kts
Wed, Aug 26, 2009 EDAZ EDBF 15:27 15:56 0.47 hrs 0.31 hrs 40.50 nm 3.82 gal 8.21 gal/hr 0.09 gal/nm 2472 msl 125 kts
Wed, Aug 26, 2009 EDAZ EDAZ 14:29 15:20 0.81 hrs 0.56 hrs 81.25 nm 9.22 gal 11.33 gal/hr 0.11 gal/nm 2482 msl 143 kts
Tue, Aug 18, 2009 EDAZ EDAZ 13:16 13:31 0.24 hrs 0.00 hrs 0.00 nm 1.17 gal 4.83 gal/hr 0.00 gal/nm 0 msl 0 kts
Tue, Aug 18, 2009 EDAZ EDAZ 06:37 06:41 0.08 hrs 0.00 hrs 0.00 nm 0.00 gal 0.00 gal/hr 0.00 gal/nm 0 msl 0 kts
Mon, Aug 17, 2009     13:47 13:50 0.05 hrs 0.00 hrs 0.00 nm 0.11 gal 2.25 gal/hr 0.00 gal/nm 0 msl 0 kts
Mon, Aug 17, 2009 EDAZ EDAZ 08:20 09:21 0.98 hrs 0.60 hrs 87.66 nm 10.70 gal 10.93 gal/hr 0.12 gal/nm 2482 msl 140 kts
Mon, Aug 17, 2009 EDBF EDAZ 07:46 08:12 0.41 hrs 0.29 hrs 43.16 nm 4.41 gal 10.70 gal/hr 0.10 gal/nm 2064 msl 141 kts
Sun, Aug 16, 2009 EDBF EDBF 11:16 11:49 0.54 hrs 0.39 hrs 44.47 nm 4.62 gal 8.51 gal/hr 0.10 gal/nm 1553 msl 115 kts
Sat, Aug 15, 2009 EDBF EDBF 13:45 13:51 0.1 hrs 0.00 hrs 0.00 nm 0.00 gal 0.00 gal/hr 0.00 gal/nm 0 msl 0 kts
Sat, Aug 15, 2009 EDBF EDBF 13:24 13:30 0.1 hrs 0.00 hrs 0.00 nm 0.00 gal 0.00 gal/hr 0.00 gal/nm 0 msl 0 kts
Thu, Aug 13, 2009 EKAH EDBF 12:37 14:24 1.76 hrs 1.60 hrs 262.05 nm 23.16 gal 13.15 gal/hr 0.09 gal/nm 5082 msl 162 kts
Thu, Aug 13, 2009 EKAH EKAH 11:56 11:57 0.03 hrs 0.00 hrs 0.00 nm 0.10 gal 3.26 gal/hr 0.00 gal/nm 0 msl 0 kts
Thu, Aug 13, 2009 EKAH EKAH 11:46 11:48 0.04 hrs 0.00 hrs 0.00 nm 0.12 gal 3.13 gal/hr 0.00 gal/nm 0 msl 0 kts
Wed, Aug 12, 2009 EGPC EKAH 12:10 14:55 2.74 hrs 2.53 hrs 469.16 nm 36.19 gal 13.21 gal/hr 0.08 gal/nm 10997 msl 186 kts
Wed, Aug 12, 2009 BIRK EGPC 07:50 11:38 3.79 hrs 3.60 hrs 644.92 nm 49.49 gal 13.07 gal/hr 0.08 gal/nm 12950 msl 180 kts
Tue, Aug 11, 2009 BIRK BIRK 18:42 18:47 0.09 hrs 0.00 hrs 0.00 nm 0.26 gal 2.99 gal/hr 0.00 gal/nm 0 msl 0 kts
Tue, Aug 11, 2009 BIRK BIRK 18:12 18:16 0.07 hrs 0.00 hrs 0.00 nm 0.18 gal 2.76 gal/hr 0.00 gal/nm 0 msl 0 kts
Tue, Aug 11, 2009 BGBW BIRK 13:30 17:51 4.33 hrs 4.10 hrs 693.42 nm 56.22 gal 12.98 gal/hr 0.08 gal/nm 12999 msl 169 kts
Tue, Aug 11, 2009 BGBW BGBW 12:51 12:59 0.13 hrs 0.00 hrs 0.00 nm 0.00 gal 0.00 gal/hr 0.00 gal/nm 0 msl 0 kts
Tue, Aug 11, 2009 CYYR BGBW 08:29 12:49 4.32 hrs 4.15 hrs 705.15 nm 58.03 gal 13.43 gal/hr 0.08 gal/nm 18897 msl 170 kts
Mon, Aug 10, 2009 CYYB CYYR 18:05 23:25 5.28 hrs 5.08 hrs 877.86 nm 67.37 gal 12.77 gal/hr 0.08 gal/nm 11581 msl 172 kts
Mon, Aug 10, 2009 KDLH CYYB 14:32 17:33 2.99 hrs 2.81 hrs 534.87 nm 43.07 gal 14.41 gal/hr 0.08 gal/nm 11291 msl 189 kts
Thu, Aug 6, 2009     14:59 15:01 0.02 hrs 0.00 hrs 0.00 nm 0.07 gal 3.24 gal/hr 0.00 gal/nm 0 msl 0 kts
Wed, Aug 5, 2009 KGPZ KDLH 19:27 22:07 2.57 hrs 2.11 hrs 325.84 nm 39.42 gal 15.37 gal/hr 0.12 gal/nm 6608 msl 149 kts
Wed, Aug 5, 2009 KDLH KGPZ 18:15 18:58 0.68 hrs 0.43 hrs 62.40 nm 9.43 gal 13.94 gal/hr 0.15 gal/nm 6565 msl 139 kts
Wed, Aug 5, 2009 KASX KDLH 16:35 17:23 0.77 hrs 0.55 hrs 72.47 nm 10.10 gal 13.09 gal/hr 0.14 gal/nm 6575 msl 128 kts
Wed, Aug 5, 2009 KDLH KASX 14:58 16:07 1.1 hrs 0.75 hrs 110.03 nm 13.80 gal 12.55 gal/hr 0.13 gal/nm 5558 msl 140 kts
Tue, Aug 4, 2009 KSUW KDLH 21:26 22:10 0.71 hrs 0.45 hrs 63.68 nm 9.58 gal 13.49 gal/hr 0.15 gal/nm 3379 msl 136 kts
Tue, Aug 4, 2009 3CU KSUW 18:30 20:46 2.2 hrs 1.87 hrs 278.90 nm 37.11 gal 16.88 gal/hr 0.13 gal/nm 8717 msl 145 kts
Tue, Aug 4, 2009 KASX 3CU 16:48 17:25 0.59 hrs 0.32 hrs 44.08 nm 6.88 gal 11.76 gal/hr 0.16 gal/nm 8212 msl 130 kts
Tue, Aug 4, 2009 KDLH KASX 15:03 16:29 1.39 hrs 0.94 hrs 123.24 nm 15.33 gal 11.06 gal/hr 0.12 gal/nm 7804 msl 126 kts
Tue, Aug 4, 2009 KDLH KDLH 14:45 14:46 0.03 hrs 0.00 hrs 0.00 nm 0.00 gal 0.00 gal/hr 0.00 gal/nm 0 msl 0 kts
Mon, Aug 3, 2009 KGPZ KDLH 20:54 22:10 1.22 hrs 0.78 hrs 107.46 nm 14.68 gal 12.09 gal/hr 0.14 gal/nm 5513 msl 132 kts
Mon, Aug 3, 2009 KDLH KGPZ 19:29 20:34 1.05 hrs 0.60 hrs 76.85 nm 12.37 gal 11.78 gal/hr 0.16 gal/nm 6215 msl 122 kts
Fri, Jul 31, 2009 KDLH KDLH 18:09 18:11 0.03 hrs 0.00 hrs 0.00 nm 0.10 gal 3.48 gal/hr 0.00 gal/nm 0 msl 0 kts
Fri, Jul 31, 2009 KDLH KDLH 16:46 17:26 0.66 hrs 0.46 hrs 70.16 nm 9.93 gal 15.16 gal/hr 0.14 gal/nm 4532 msl 149 kts
Tue, Jul 28, 2009 KDLH KDLH 21:22 21:26 0.08 hrs 0.00 hrs 0.00 nm 0.17 gal 2.32 gal/hr 0.00 gal/nm 0 msl 0 kts
          154.86 hrs 123.73 hrs 19419.29 nm 1930.91 gal